Craig, AK

7:07 AM AKDT on August 01, 2015 (GMT -0800)
Klawock | | Change Station
CLOSE
Current Station
Airport
Location: Klawock,
Elevation: 79 ft
Nearby Weather Stations

Elev 79 ft 55.58 °N, 133.08 °W | Updated 3 minutes ago

Overcast
Overcast
52 °F
Feels Like 52 °F
N
4
Wind Variable Wind from South

Today
High -- | Low -- °F
--% Chance of Precip.
Yesterday
High -- | Low -- °F
Precip. -- in
4:59 AM 8:57 PM
Full, 98% visible
Pressure 30.14 in
Visibility 10.0 miles
Clouds Scattered Clouds 900 ft
Mostly Cloudy 2800 ft
Overcast 5500 ft
Dew Point 52 °F
Humidity 100%
Rainfall 0.03 in
Snow Depth Not available.
UV 0 out of 12
Pollen Not available.
Air Quality Not available.
Flu Activity Not available.
SPECI PAKW 011504Z AUTO 17003KT 10SM SCT009 BKN028 OVC055 11/11 A3014 RMK AO2 T01110111 TSNO $

More Conditions Fewer Conditions

Pressure 30.14 in
Visibility 10.0 miles
Clouds Scattered Clouds 900 ft
Mostly Cloudy 2800 ft
Overcast 5500 ft
Dew Point 52 °F
Humidity 100%
Rainfall 0.03 in
Snow Depth Not available.
UV 0 out of 12
Pollen Not available.
Air Quality Not available.
Flu Activity Not available.
SPECI PAKW 011504Z AUTO 17003KT 10SM SCT009 BKN028 OVC055 11/11 A3014 RMK AO2 T01110111 TSNO $

More Conditions Fewer Conditions

10-Day Weather Forecast

×

Almanac

Astronomy

Aug. 01, 2015 Rise Set
Actual Time
Civil Twilight
Nautical Twilight
Astronomical Twilight
Moon
Length of Visible Light
Length of Day
Tomorrow will be .
, % of the Moon is Illuminated

Today's Extremes

State Highs State Lows

Community

WunderPhotos

Upload Photos

1,842,959 photos uploaded!

WunderBlogs® & News

Nearby

Air Quality

  Air Quality AQ Index Pollutant
Not available.

Snow Depth

Station Depth Elevation

Earthquake Activity

City Distance Mag. Time & Date
Minimum magnitude displayed is 2.5.

Coastal Water Temperatures

Place Temperature

Stations

Nearby Weather Stations

Station Location Temp. Windchill Dew Point Humidity Wind Precip. Elev Updated Type